sensor_id;sensor_type;location;lat;lon;timestamp;P1;durP1;ratioP1;P2;durP2;ratioP2
67429;SDS011;54298;52.076;5.264;2022-12-18T00:01:00;86.8;;;49.4;;
67429;SDS011;54298;52.076;5.264;2022-12-18T00:02:36;84.1;;;48.3;;
67429;SDS011;54298;52.076;5.264;2022-12-18T00:05:58;77.3;;;41.9;;
67429;SDS011;54298;52.076;5.264;2022-12-18T00:07:35;94.6;;;49.3;;
67429;SDS011;54298;52.076;5.264;2022-12-18T00:09:12;83.8;;;45.6;;
67429;SDS011;54298;52.076;5.264;2022-12-18T00:10:48;85.7;;;50.3;;
67429;SDS011;54298;52.076;5.264;2022-12-18T00:14:00;91.4;;;50.1;;
67429;SDS011;54298;52.076;5.264;2022-12-18T00:15:37;78.91;;;44.0;;
67429;SDS011;54298;52.076;5.264;2022-12-18T00:17:14;91.5;;;50.4;;
67429;SDS011;54298;52.076;5.264;2022-12-18T00:20:31;84.2;;;46.6;;
67429;SDS011;54298;52.076;5.264;2022-12-18T00:22:12;83.1;;;47.5;;
67429;SDS011;54298;52.076;5.264;2022-12-18T00:23:49;90.6;;;49.8;;
67429;SDS011;54298;52.076;5.264;2022-12-18T00:25:26;91.9;;;53.1;;
67429;SDS011;54298;52.076;5.264;2022-12-18T00:28:39;84.9;;;51.5;;
67429;SDS011;54298;52.076;5.264;2022-12-18T00:30:15;88.6;;;53.9;;
67429;SDS011;54298;52.076;5.264;2022-12-18T00:31:52;93.9;;;55.7;;
67429;SDS011;54298;52.076;5.264;2022-12-18T00:35:06;84.5;;;42.9;;
67429;SDS011;54298;52.076;5.264;2022-12-18T00:36:43;100.2;;;53.5;;
67429;SDS011;54298;52.076;5.264;2022-12-18T00:38:19;90.4;;;46.0;;
67429;SDS011;54298;52.076;5.264;2022-12-18T00:39:55;82.6;;;46.7;;
67429;SDS011;54298;52.076;5.264;2022-12-18T00:43:08;90.2;;;49.3;;
67429;SDS011;54298;52.076;5.264;2022-12-18T00:44:44;85.8;;;46.5;;
67429;SDS011;54298;52.076;5.264;2022-12-18T00:46:21;94.6;;;52.5;;
67429;SDS011;54298;52.076;5.264;2022-12-18T00:49:33;89.8;;;49.3;;
67429;SDS011;54298;52.076;5.264;2022-12-18T00:51:09;79.5;;;39.81;;
67429;SDS011;54298;52.076;5.264;2022-12-18T00:52:45;91.6;;;49.1;;
67429;SDS011;54298;52.076;5.264;2022-12-18T00:55:59;103.7;;;50.7;;
67429;SDS011;54298;52.076;5.264;2022-12-18T00:57:35;93.7;;;51.3;;
67429;SDS011;54298;52.076;5.264;2022-12-18T01:00:47;88.8;;;46.2;;
67429;SDS011;54298;52.076;5.264;2022-12-18T01:04:00;102.1;;;56.2;;
67429;SDS011;54298;52.076;5.264;2022-12-18T01:05:38;90.7;;;44.1;;
67429;SDS011;54298;52.076;5.264;2022-12-18T01:07:15;97.6;;;50.2;;
67429;SDS011;54298;52.076;5.264;2022-12-18T01:10:27;93.2;;;44.3;;
67429;SDS011;54298;52.076;5.264;2022-12-18T01:12:04;104.4;;;57.4;;
67429;SDS011;54298;52.076;5.264;2022-12-18T01:13:41;95.5;;;53.5;;
67429;SDS011;54298;52.076;5.264;2022-12-18T01:16:55;98.8;;;51.4;;
67429;SDS011;54298;52.076;5.264;2022-12-18T01:18:31;94.7;;;55.6;;
67429;SDS011;54298;52.076;5.264;2022-12-18T01:20:08;90.8;;;46.2;;
67429;SDS011;54298;52.076;5.264;2022-12-18T01:21:47;98.2;;;52.0;;
67429;SDS011;54298;52.076;5.264;2022-12-18T01:25:03;95.7;;;52.1;;
67429;SDS011;54298;52.076;5.264;2022-12-18T01:26:40;97.6;;;53.8;;
67429;SDS011;54298;52.076;5.264;2022-12-18T01:28:16;95.6;;;54.2;;
67429;SDS011;54298;52.076;5.264;2022-12-18T01:31:31;95.2;;;53.9;;
67429;SDS011;54298;52.076;5.264;2022-12-18T01:33:09;93.8;;;49.5;;
67429;SDS011;54298;52.076;5.264;2022-12-18T01:34:45;94.7;;;47.8;;
67429;SDS011;54298;52.076;5.264;2022-12-18T01:36:23;95.2;;;47.3;;
67429;SDS011;54298;52.076;5.264;2022-12-18T01:39:37;93.6;;;48.8;;
67429;SDS011;54298;52.076;5.264;2022-12-18T01:41:13;92.0;;;47.2;;
67429;SDS011;54298;52.076;5.264;2022-12-18T01:42:55;91.4;;;45.5;;
67429;SDS011;54298;52.076;5.264;2022-12-18T01:46:56;92.0;;;48.7;;
67429;SDS011;54298;52.076;5.264;2022-12-18T01:50:10;88.9;;;44.3;;
67429;SDS011;54298;52.076;5.264;2022-12-18T01:51:50;94.2;;;53.3;;
67429;SDS011;54298;52.076;5.264;2022-12-18T01:53:27;88.3;;;51.2;;
67429;SDS011;54298;52.076;5.264;2022-12-18T01:56:42;95.2;;;51.9;;
67429;SDS011;54298;52.076;5.264;2022-12-18T01:58:18;84.5;;;44.0;;
67429;SDS011;54298;52.076;5.264;2022-12-18T02:00:00;89.1;;;46.8;;
67429;SDS011;54298;52.076;5.264;2022-12-18T02:01:43;78.8;;;40.71;;
67429;SDS011;54298;52.076;5.264;2022-12-18T02:04:56;89.5;;;45.2;;
67429;SDS011;54298;52.076;5.264;2022-12-18T02:06:33;95.4;;;46.6;;
67429;SDS011;54298;52.076;5.264;2022-12-18T02:08:16;77.0;;;39.71;;
67429;SDS011;54298;52.076;5.264;2022-12-18T02:10:02;77.0;;;39.71;;
67429;SDS011;54298;52.076;5.264;2022-12-18T02:13:32;80.41;;;39.71;;
67429;SDS011;54298;52.076;5.264;2022-12-18T02:15:19;81.8;;;41.6;;
67429;SDS011;54298;52.076;5.264;2022-12-18T02:17:03;87.3;;;41.5;;
67429;SDS011;54298;52.076;5.264;2022-12-18T02:18:47;73.41;;;40.0;;
67429;SDS011;54298;52.076;5.264;2022-12-18T02:20:31;77.5;;;38.6;;
67429;SDS011;54298;52.076;5.264;2022-12-18T02:24:10;91.4;;;45.4;;
67429;SDS011;54298;52.076;5.264;2022-12-18T02:26:02;88.5;;;42.6;;
67429;SDS011;54298;52.076;5.264;2022-12-18T02:27:47;94.9;;;51.1;;
67429;SDS011;54298;52.076;5.264;2022-12-18T02:29:27;85.0;;;42.7;;
67429;SDS011;54298;52.076;5.264;2022-12-18T02:31:09;97.2;;;54.5;;
67429;SDS011;54298;52.076;5.264;2022-12-18T02:34:31;86.0;;;42.9;;
67429;SDS011;54298;52.076;5.264;2022-12-18T02:36:13;74.41;;;39.5;;
67429;SDS011;54298;52.076;5.264;2022-12-18T02:37:52;73.7;;;37.31;;
67429;SDS011;54298;52.076;5.264;2022-12-18T02:39:29;74.91;;;40.4;;
67429;SDS011;54298;52.076;5.264;2022-12-18T02:41:08;82.0;;;40.9;;
67429;SDS011;54298;52.076;5.264;2022-12-18T02:44:22;74.11;;;37.6;;
67429;SDS011;54298;52.076;5.264;2022-12-18T02:45:59;89.9;;;43.2;;
67429;SDS011;54298;52.076;5.264;2022-12-18T02:47:56;79.41;;;40.31;;
67429;SDS011;54298;52.076;5.264;2022-12-18T02:49:34;86.1;;;41.1;;
67429;SDS011;54298;52.076;5.264;2022-12-18T02:53:07;87.1;;;42.9;;
67429;SDS011;54298;52.076;5.264;2022-12-18T02:54:55;90.4;;;44.1;;
67429;SDS011;54298;52.076;5.264;2022-12-18T02:56:41;83.2;;;41.3;;
67429;SDS011;54298;52.076;5.264;2022-12-18T02:58:26;93.2;;;44.3;;
67429;SDS011;54298;52.076;5.264;2022-12-18T03:03:35;90.0;;;42.6;;
67429;SDS011;54298;52.076;5.264;2022-12-18T03:05:16;91.0;;;41.5;;
67429;SDS011;54298;52.076;5.264;2022-12-18T03:07:00;77.61;;;37.9;;
67429;SDS011;54298;52.076;5.264;2022-12-18T03:08:42;80.2;;;39.1;;
67429;SDS011;54298;52.076;5.264;2022-12-18T03:12:06;78.0;;;40.9;;
67429;SDS011;54298;52.076;5.264;2022-12-18T03:13:50;79.41;;;43.2;;
67429;SDS011;54298;52.076;5.264;2022-12-18T03:15:34;79.61;;;39.1;;
67429;SDS011;54298;52.076;5.264;2022-12-18T03:17:14;76.8;;;39.31;;
67429;SDS011;54298;52.076;5.264;2022-12-18T03:18:56;92.8;;;43.3;;
67429;SDS011;54298;52.076;5.264;2022-12-18T03:22:19;90.2;;;43.5;;
67429;SDS011;54298;52.076;5.264;2022-12-18T03:23:59;85.2;;;41.1;;
67429;SDS011;54298;52.076;5.264;2022-12-18T03:25:38;94.0;;;44.4;;
67429;SDS011;54298;52.076;5.264;2022-12-18T03:27:18;72.8;;;36.9;;
67429;SDS011;54298;52.076;5.264;2022-12-18T03:30:43;78.11;;;41.6;;
67429;SDS011;54298;52.076;5.264;2022-12-18T03:32:23;85.7;;;48.9;;
67429;SDS011;54298;52.076;5.264;2022-12-18T03:34:04;81.0;;;39.6;;
67429;SDS011;54298;52.076;5.264;2022-12-18T03:35:48;81.41;;;39.6;;
67429;SDS011;54298;52.076;5.264;2022-12-18T03:39:01;78.61;;;39.4;;
67429;SDS011;54298;52.076;5.264;2022-12-18T03:40:50;86.5;;;42.9;;
67429;SDS011;54298;52.076;5.264;2022-12-18T03:42:37;81.41;;;41.1;;
67429;SDS011;54298;52.076;5.264;2022-12-18T03:44:23;92.9;;;46.5;;
67429;SDS011;54298;52.076;5.264;2022-12-18T03:46:09;84.4;;;41.4;;
67429;SDS011;54298;52.076;5.264;2022-12-18T03:49:38;81.7;;;41.0;;
67429;SDS011;54298;52.076;5.264;2022-12-18T03:51:23;80.61;;;42.1;;
67429;SDS011;54298;52.076;5.264;2022-12-18T03:53:08;77.91;;;39.31;;
67429;SDS011;54298;52.076;5.264;2022-12-18T03:54:54;71.61;;;38.0;;
67429;SDS011;54298;52.076;5.264;2022-12-18T03:56:35;66.41;;;35.6;;
67429;SDS011;54298;52.076;5.264;2022-12-18T03:59:56;79.61;;;40.6;;
67429;SDS011;54298;52.076;5.264;2022-12-18T04:01:38;78.8;;;38.4;;
67429;SDS011;54298;52.076;5.264;2022-12-18T04:03:18;74.7;;;35.9;;
67429;SDS011;54298;52.076;5.264;2022-12-18T04:04:57;75.41;;;37.81;;
67429;SDS011;54298;52.076;5.264;2022-12-18T04:08:16;78.5;;;38.71;;
67429;SDS011;54298;52.076;5.264;2022-12-18T04:09:53;71.8;;;37.71;;
67429;SDS011;54298;52.076;5.264;2022-12-18T04:11:32;73.3;;;36.5;;
67429;SDS011;54298;52.076;5.264;2022-12-18T04:14:44;67.7;;;35.4;;
67429;SDS011;54298;52.076;5.264;2022-12-18T04:16:21;74.2;;;35.9;;
67429;SDS011;54298;52.076;5.264;2022-12-18T04:17:57;72.41;;;33.3;;
67429;SDS011;54298;52.076;5.264;2022-12-18T04:19:33;68.91;;;34.9;;
67429;SDS011;54298;52.076;5.264;2022-12-18T04:22:47;61.1;;;33.71;;
67429;SDS011;54298;52.076;5.264;2022-12-18T04:24:24;67.6;;;33.71;;
67429;SDS011;54298;52.076;5.264;2022-12-18T04:26:00;62.1;;;32.8;;
67429;SDS011;54298;52.076;5.264;2022-12-18T04:29:12;65.3;;;36.1;;
67429;SDS011;54298;52.076;5.264;2022-12-18T04:30:48;62.4;;;31.5;;
67429;SDS011;54298;52.076;5.264;2022-12-18T04:32:24;58.7;;;31.1;;
67429;SDS011;54298;52.076;5.264;2022-12-18T04:35:37;62.5;;;32.4;;
67429;SDS011;54298;52.076;5.264;2022-12-18T04:37:13;56.0;;;29.5;;
67429;SDS011;54298;52.076;5.264;2022-12-18T04:38:49;55.7;;;30.5;;
67429;SDS011;54298;52.076;5.264;2022-12-18T04:40:25;55.6;;;29.8;;
67429;SDS011;54298;52.076;5.264;2022-12-18T04:43:38;53.0;;;29.6;;
67429;SDS011;54298;52.076;5.264;2022-12-18T04:45:14;52.0;;;27.7;;
67429;SDS011;54298;52.076;5.264;2022-12-18T04:46:50;49.3;;;27.2;;
67429;SDS011;54298;52.076;5.264;2022-12-18T04:50:03;47.5;;;25.8;;
67429;SDS011;54298;52.076;5.264;2022-12-18T04:51:40;50.6;;;27.4;;
67429;SDS011;54298;52.076;5.264;2022-12-18T04:53:16;47.2;;;28.3;;
67429;SDS011;54298;52.076;5.264;2022-12-18T04:56:30;46.4;;;25.9;;
67429;SDS011;54298;52.076;5.264;2022-12-18T04:58:07;44.4;;;24.9;;
67429;SDS011;54298;52.076;5.264;2022-12-18T04:59:43;47.6;;;25.8;;
67429;SDS011;54298;52.076;5.264;2022-12-18T05:01:19;46.9;;;28.1;;
67429;SDS011;54298;52.076;5.264;2022-12-18T05:04:31;45.5;;;25.6;;
67429;SDS011;54298;52.076;5.264;2022-12-18T05:06:08;44.6;;;26.7;;
67429;SDS011;54298;52.076;5.264;2022-12-18T05:07:45;44.8;;;25.4;;
67429;SDS011;54298;52.076;5.264;2022-12-18T05:10:59;44.4;;;25.9;;
67429;SDS011;54298;52.076;5.264;2022-12-18T05:12:36;39.81;;;24.2;;
67429;SDS011;54298;52.076;5.264;2022-12-18T05:14:13;45.5;;;25.6;;
67429;SDS011;54298;52.076;5.264;2022-12-18T05:17:28;42.9;;;23.8;;
67429;SDS011;54298;52.076;5.264;2022-12-18T05:19:04;44.4;;;27.3;;
67429;SDS011;54298;52.076;5.264;2022-12-18T05:20:40;50.2;;;29.6;;
67429;SDS011;54298;52.076;5.264;2022-12-18T05:22:17;43.6;;;24.6;;
67429;SDS011;54298;52.076;5.264;2022-12-18T05:25:29;50.0;;;28.6;;
67429;SDS011;54298;52.076;5.264;2022-12-18T05:27:05;44.9;;;25.1;;
67429;SDS011;54298;52.076;5.264;2022-12-18T05:28:41;40.71;;;24.2;;
67429;SDS011;54298;52.076;5.264;2022-12-18T05:31:54;39.5;;;22.8;;
67429;SDS011;54298;52.076;5.264;2022-12-18T05:33:30;40.4;;;22.8;;
67429;SDS011;54298;52.076;5.264;2022-12-18T05:35:10;40.71;;;22.4;;
67429;SDS011;54298;52.076;5.264;2022-12-18T05:38:24;34.21;;;20.7;;
67429;SDS011;54298;52.076;5.264;2022-12-18T05:40:02;38.0;;;21.6;;
67429;SDS011;54298;52.076;5.264;2022-12-18T05:41:40;39.9;;;23.1;;
67429;SDS011;54298;52.076;5.264;2022-12-18T05:43:16;35.0;;;22.0;;
67429;SDS011;54298;52.076;5.264;2022-12-18T05:46:29;35.0;;;22.0;;
67429;SDS011;54298;52.076;5.264;2022-12-18T05:48:06;41.0;;;23.9;;
67429;SDS011;54298;52.076;5.264;2022-12-18T05:49:43;36.5;;;22.6;;
67429;SDS011;54298;52.076;5.264;2022-12-18T05:52:57;36.9;;;22.8;;
67429;SDS011;54298;52.076;5.264;2022-12-18T05:54:33;40.5;;;24.8;;
67429;SDS011;54298;52.076;5.264;2022-12-18T05:56:11;38.0;;;22.3;;
67429;SDS011;54298;52.076;5.264;2022-12-18T05:57:50;38.6;;;23.0;;
67429;SDS011;54298;52.076;5.264;2022-12-18T06:01:06;35.6;;;22.0;;
67429;SDS011;54298;52.076;5.264;2022-12-18T06:02:46;39.31;;;23.8;;
67429;SDS011;54298;52.076;5.264;2022-12-18T06:04:23;34.31;;;23.1;;
67429;SDS011;54298;52.076;5.264;2022-12-18T06:07:35;38.6;;;22.4;;
67429;SDS011;54298;52.076;5.264;2022-12-18T06:09:11;34.5;;;20.41;;
67429;SDS011;54298;52.076;5.264;2022-12-18T06:10:49;37.9;;;23.2;;
67429;SDS011;54298;52.076;5.264;2022-12-18T06:12:27;36.1;;;21.3;;
67429;SDS011;54298;52.076;5.264;2022-12-18T06:15:41;34.4;;;20.9;;
67429;SDS011;54298;52.076;5.264;2022-12-18T06:17:17;33.3;;;20.41;;
67429;SDS011;54298;52.076;5.264;2022-12-18T06:18:55;37.81;;;21.6;;
67429;SDS011;54298;52.076;5.264;2022-12-18T06:22:08;38.1;;;23.6;;
67429;SDS011;54298;52.076;5.264;2022-12-18T06:23:44;35.0;;;21.7;;
67429;SDS011;54298;52.076;5.264;2022-12-18T06:25:20;33.5;;;20.9;;
67429;SDS011;54298;52.076;5.264;2022-12-18T06:28:32;37.71;;;23.2;;
67429;SDS011;54298;52.076;5.264;2022-12-18T06:30:09;38.31;;;22.3;;
67429;SDS011;54298;52.076;5.264;2022-12-18T06:31:46;34.6;;;20.2;;
67429;SDS011;54298;52.076;5.264;2022-12-18T06:33:25;33.1;;;20.5;;
67429;SDS011;54298;52.076;5.264;2022-12-18T06:36:39;36.81;;;23.3;;
67429;SDS011;54298;52.076;5.264;2022-12-18T06:38:16;32.6;;;20.0;;
67429;SDS011;54298;52.076;5.264;2022-12-18T06:39:52;29.6;;;18.11;;
67429;SDS011;54298;52.076;5.264;2022-12-18T06:43:04;32.71;;;20.7;;
67429;SDS011;54298;52.076;5.264;2022-12-18T06:44:41;34.9;;;21.7;;
67429;SDS011;54298;52.076;5.264;2022-12-18T06:46:18;30.8;;;19.2;;
67429;SDS011;54298;52.076;5.264;2022-12-18T06:49:31;31.3;;;20.3;;
67429;SDS011;54298;52.076;5.264;2022-12-18T06:51:07;31.4;;;20.6;;
67429;SDS011;54298;52.076;5.264;2022-12-18T06:52:43;35.81;;;23.3;;
67429;SDS011;54298;52.076;5.264;2022-12-18T06:54:20;34.21;;;22.3;;
67429;SDS011;54298;52.076;5.264;2022-12-18T06:57:36;31.7;;;19.7;;
67429;SDS011;54298;52.076;5.264;2022-12-18T06:59:13;29.1;;;19.5;;
67429;SDS011;54298;52.076;5.264;2022-12-18T07:00:50;31.8;;;19.5;;
67429;SDS011;54298;52.076;5.264;2022-12-18T07:04:03;31.6;;;19.41;;
67429;SDS011;54298;52.076;5.264;2022-12-18T07:05:39;33.71;;;20.7;;
67429;SDS011;54298;52.076;5.264;2022-12-18T07:07:16;30.7;;;20.11;;
67429;SDS011;54298;52.076;5.264;2022-12-18T07:12:07;32.9;;;20.9;;
67429;SDS011;54298;52.076;5.264;2022-12-18T07:13:43;34.6;;;20.41;;
67429;SDS011;54298;52.076;5.264;2022-12-18T07:15:20;30.0;;;20.2;;
67429;SDS011;54298;52.076;5.264;2022-12-18T07:18:32;33.9;;;20.5;;
67429;SDS011;54298;52.076;5.264;2022-12-18T07:20:09;31.7;;;21.0;;
67429;SDS011;54298;52.076;5.264;2022-12-18T07:21:46;30.6;;;20.8;;
67429;SDS011;54298;52.076;5.264;2022-12-18T07:24:58;29.8;;;19.8;;
67429;SDS011;54298;52.076;5.264;2022-12-18T07:26:34;31.8;;;19.11;;
67429;SDS011;54298;52.076;5.264;2022-12-18T07:31:23;31.9;;;19.8;;
67429;SDS011;54298;52.076;5.264;2022-12-18T07:33:00;31.0;;;20.5;;
67429;SDS011;54298;52.076;5.264;2022-12-18T07:34:36;31.0;;;20.5;;
67429;SDS011;54298;52.076;5.264;2022-12-18T07:36:13;30.7;;;19.5;;
67429;SDS011;54298;52.076;5.264;2022-12-18T07:39:26;29.6;;;18.7;;
67429;SDS011;54298;52.076;5.264;2022-12-18T07:41:03;30.3;;;20.5;;
67429;SDS011;54298;52.076;5.264;2022-12-18T07:42:40;29.9;;;19.7;;
67429;SDS011;54298;52.076;5.264;2022-12-18T07:45:54;32.21;;;20.11;;
67429;SDS011;54298;52.076;5.264;2022-12-18T07:47:33;30.9;;;20.7;;
67429;SDS011;54298;52.076;5.264;2022-12-18T07:49:10;32.9;;;20.3;;
67429;SDS011;54298;52.076;5.264;2022-12-18T07:50:46;32.3;;;22.9;;
67429;SDS011;54298;52.076;5.264;2022-12-18T07:53:59;27.9;;;19.5;;
67429;SDS011;54298;52.076;5.264;2022-12-18T07:55:35;32.6;;;22.9;;
67429;SDS011;54298;52.076;5.264;2022-12-18T07:57:11;32.1;;;21.6;;
67429;SDS011;54298;52.076;5.264;2022-12-18T08:00:24;32.1;;;21.3;;
67429;SDS011;54298;52.076;5.264;2022-12-18T08:02:00;28.7;;;18.8;;
67429;SDS011;54298;52.076;5.264;2022-12-18T08:03:37;30.3;;;22.4;;
67429;SDS011;54298;52.076;5.264;2022-12-18T08:06:51;68.2;;;37.0;;
67429;SDS011;54298;52.076;5.264;2022-12-18T08:08:27;36.9;;;23.2;;
67429;SDS011;54298;52.076;5.264;2022-12-18T08:10:04;36.21;;;24.0;;
67429;SDS011;54298;52.076;5.264;2022-12-18T08:11:41;31.7;;;20.6;;
67429;SDS011;54298;52.076;5.264;2022-12-18T08:14:54;33.9;;;21.0;;
67429;SDS011;54298;52.076;5.264;2022-12-18T08:16:31;33.0;;;21.4;;
67429;SDS011;54298;52.076;5.264;2022-12-18T08:18:07;38.71;;;21.9;;
67429;SDS011;54298;52.076;5.264;2022-12-18T08:21:20;35.1;;;22.5;;
67429;SDS011;54298;52.076;5.264;2022-12-18T08:22:58;27.5;;;20.0;;
67429;SDS011;54298;52.076;5.264;2022-12-18T08:24:34;33.3;;;21.0;;
67429;SDS011;54298;52.076;5.264;2022-12-18T08:27:47;29.1;;;19.8;;
67429;SDS011;54298;52.076;5.264;2022-12-18T08:29:23;27.6;;;18.3;;
67429;SDS011;54298;52.076;5.264;2022-12-18T08:31:00;30.2;;;20.7;;
67429;SDS011;54298;52.076;5.264;2022-12-18T08:32:36;31.9;;;20.11;;
67429;SDS011;54298;52.076;5.264;2022-12-18T08:35:47;27.1;;;17.11;;
67429;SDS011;54298;52.076;5.264;2022-12-18T08:37:24;28.7;;;20.5;;
67429;SDS011;54298;52.076;5.264;2022-12-18T08:39:00;27.8;;;19.2;;
67429;SDS011;54298;52.076;5.264;2022-12-18T08:42:12;30.9;;;20.3;;
67429;SDS011;54298;52.076;5.264;2022-12-18T08:43:48;33.21;;;22.8;;
67429;SDS011;54298;52.076;5.264;2022-12-18T08:45:25;27.6;;;18.3;;
67429;SDS011;54298;52.076;5.264;2022-12-18T08:48:37;27.1;;;17.8;;
67429;SDS011;54298;52.076;5.264;2022-12-18T08:50:14;26.1;;;17.91;;
67429;SDS011;54298;52.076;5.264;2022-12-18T08:51:53;27.8;;;18.7;;
67429;SDS011;54298;52.076;5.264;2022-12-18T08:53:30;24.5;;;16.8;;
67429;SDS011;54298;52.076;5.264;2022-12-18T08:56:44;26.4;;;17.5;;
67429;SDS011;54298;52.076;5.264;2022-12-18T08:58:21;28.6;;;19.8;;
67429;SDS011;54298;52.076;5.264;2022-12-18T08:59:57;29.5;;;20.7;;
67429;SDS011;54298;52.076;5.264;2022-12-18T09:03:10;26.5;;;17.0;;
67429;SDS011;54298;52.076;5.264;2022-12-18T09:04:47;28.6;;;19.7;;
67429;SDS011;54298;52.076;5.264;2022-12-18T09:06:24;27.0;;;20.2;;
67429;SDS011;54298;52.076;5.264;2022-12-18T09:09:36;27.0;;;20.2;;
67429;SDS011;54298;52.076;5.264;2022-12-18T09:11:13;28.8;;;19.2;;
67429;SDS011;54298;52.076;5.264;2022-12-18T09:12:53;29.5;;;20.0;;
67429;SDS011;54298;52.076;5.264;2022-12-18T09:14:30;33.0;;;22.5;;
67429;SDS011;54298;52.076;5.264;2022-12-18T09:17:43;29.2;;;19.11;;
67429;SDS011;54298;52.076;5.264;2022-12-18T09:19:19;28.2;;;20.2;;
67429;SDS011;54298;52.076;5.264;2022-12-18T09:20:55;29.9;;;19.3;;
67429;SDS011;54298;52.076;5.264;2022-12-18T09:24:08;29.0;;;17.7;;
67429;SDS011;54298;52.076;5.264;2022-12-18T09:25:49;32.5;;;22.4;;
67429;SDS011;54298;52.076;5.264;2022-12-18T09:27:25;32.5;;;22.4;;
67429;SDS011;54298;52.076;5.264;2022-12-18T09:30:38;29.2;;;20.0;;
67429;SDS011;54298;52.076;5.264;2022-12-18T09:32:16;31.6;;;20.9;;
67429;SDS011;54298;52.076;5.264;2022-12-18T09:33:54;38.9;;;23.7;;
67429;SDS011;54298;52.076;5.264;2022-12-18T09:35:30;32.3;;;20.41;;
67429;SDS011;54298;52.076;5.264;2022-12-18T09:38:43;26.0;;;19.0;;
67429;SDS011;54298;52.076;5.264;2022-12-18T09:40:22;25.5;;;18.41;;
67429;SDS011;54298;52.076;5.264;2022-12-18T09:42:01;25.5;;;18.41;;
67429;SDS011;54298;52.076;5.264;2022-12-18T09:45:21;25.4;;;17.41;;
67429;SDS011;54298;52.076;5.264;2022-12-18T09:47:02;26.2;;;17.7;;
67429;SDS011;54298;52.076;5.264;2022-12-18T09:48:46;30.3;;;21.2;;
67429;SDS011;54298;52.076;5.264;2022-12-18T09:50:28;29.0;;;19.5;;
67429;SDS011;54298;52.076;5.264;2022-12-18T09:52:09;28.2;;;19.61;;
67429;SDS011;54298;52.076;5.264;2022-12-18T09:55:34;30.5;;;20.6;;
67429;SDS011;54298;52.076;5.264;2022-12-18T09:57:14;25.5;;;17.8;;
67429;SDS011;54298;52.076;5.264;2022-12-18T09:58:55;26.8;;;18.3;;
67429;SDS011;54298;52.076;5.264;2022-12-18T10:00:34;28.4;;;20.8;;
67429;SDS011;54298;52.076;5.264;2022-12-18T10:03:52;25.6;;;18.2;;
67429;SDS011;54298;52.076;5.264;2022-12-18T10:05:32;27.8;;;19.8;;
67429;SDS011;54298;52.076;5.264;2022-12-18T10:07:24;30.7;;;19.91;;
67429;SDS011;54298;52.076;5.264;2022-12-18T10:09:11;24.6;;;16.7;;
67429;SDS011;54298;52.076;5.264;2022-12-18T10:10:57;26.7;;;18.91;;
67429;SDS011;54298;52.076;5.264;2022-12-18T10:14:34;28.8;;;19.61;;
67429;SDS011;54298;52.076;5.264;2022-12-18T10:16:17;27.4;;;18.91;;
67429;SDS011;54298;52.076;5.264;2022-12-18T10:18:03;26.2;;;18.61;;
67429;SDS011;54298;52.076;5.264;2022-12-18T10:19:58;29.8;;;19.0;;
67429;SDS011;54298;52.076;5.264;2022-12-18T10:21:39;25.3;;;17.0;;
67429;SDS011;54298;52.076;5.264;2022-12-18T10:25:14;29.1;;;20.0;;
67429;SDS011;54298;52.076;5.264;2022-12-18T10:26:56;27.3;;;18.7;;
67429;SDS011;54298;52.076;5.264;2022-12-18T10:28:45;28.4;;;19.61;;
67429;SDS011;54298;52.076;5.264;2022-12-18T10:30:23;25.7;;;18.11;;
67429;SDS011;54298;52.076;5.264;2022-12-18T10:32:01;26.6;;;17.8;;
67429;SDS011;54298;52.076;5.264;2022-12-18T10:35:15;25.1;;;17.3;;
67429;SDS011;54298;52.076;5.264;2022-12-18T10:36:55;28.2;;;19.2;;
67429;SDS011;54298;52.076;5.264;2022-12-18T10:38:32;24.3;;;16.4;;
67429;SDS011;54298;52.076;5.264;2022-12-18T10:41:49;24.8;;;16.8;;
67429;SDS011;54298;52.076;5.264;2022-12-18T10:43:26;28.3;;;18.91;;
67429;SDS011;54298;52.076;5.264;2022-12-18T10:45:08;30.0;;;21.6;;
67429;SDS011;54298;52.076;5.264;2022-12-18T10:46:50;24.6;;;17.3;;
67429;SDS011;54298;52.076;5.264;2022-12-18T10:50:11;26.5;;;19.2;;
67429;SDS011;54298;52.076;5.264;2022-12-18T10:52:04;25.6;;;18.61;;
67429;SDS011;54298;52.076;5.264;2022-12-18T10:53:44;28.3;;;18.61;;
67429;SDS011;54298;52.076;5.264;2022-12-18T10:55:31;31.6;;;20.7;;
67429;SDS011;54298;52.076;5.264;2022-12-18T10:57:19;23.8;;;17.11;;
67429;SDS011;54298;52.076;5.264;2022-12-18T10:59:08;24.9;;;17.2;;
67429;SDS011;54298;52.076;5.264;2022-12-18T11:02:39;26.8;;;18.0;;
67429;SDS011;54298;52.076;5.264;2022-12-18T11:04:16;27.2;;;17.61;;
67429;SDS011;54298;52.076;5.264;2022-12-18T11:06:01;28.1;;;18.5;;
67429;SDS011;54298;52.076;5.264;2022-12-18T11:07:47;26.3;;;17.2;;
67429;SDS011;54298;52.076;5.264;2022-12-18T11:11:02;27.3;;;20.41;;
67429;SDS011;54298;52.076;5.264;2022-12-18T11:12:43;30.2;;;21.0;;
67429;SDS011;54298;52.076;5.264;2022-12-18T11:14:21;31.7;;;21.4;;
67429;SDS011;54298;52.076;5.264;2022-12-18T11:16:00;26.5;;;17.3;;
67429;SDS011;54298;52.076;5.264;2022-12-18T11:19:16;26.5;;;19.5;;
67429;SDS011;54298;52.076;5.264;2022-12-18T11:21:00;26.2;;;18.7;;
67429;SDS011;54298;52.076;5.264;2022-12-18T11:22:44;27.2;;;20.5;;
67429;SDS011;54298;52.076;5.264;2022-12-18T11:24:33;28.4;;;19.61;;
67429;SDS011;54298;52.076;5.264;2022-12-18T11:26:12;29.7;;;19.7;;
67429;SDS011;54298;52.076;5.264;2022-12-18T11:29:35;29.5;;;21.4;;
67429;SDS011;54298;52.076;5.264;2022-12-18T11:31:21;30.6;;;19.61;;
67429;SDS011;54298;52.076;5.264;2022-12-18T11:33:02;27.8;;;19.7;;
67429;SDS011;54298;52.076;5.264;2022-12-18T11:34:42;27.8;;;20.11;;
67429;SDS011;54298;52.076;5.264;2022-12-18T11:38:02;27.2;;;18.91;;
67429;SDS011;54298;52.076;5.264;2022-12-18T11:39:49;33.4;;;22.1;;
67429;SDS011;54298;52.076;5.264;2022-12-18T11:41:32;28.9;;;19.2;;
67429;SDS011;54298;52.076;5.264;2022-12-18T11:43:17;27.4;;;18.8;;
67429;SDS011;54298;52.076;5.264;2022-12-18T11:45:03;26.2;;;19.11;;
67429;SDS011;54298;52.076;5.264;2022-12-18T11:48:38;26.5;;;17.5;;
67429;SDS011;54298;52.076;5.264;2022-12-18T11:50:24;27.2;;;19.7;;
67429;SDS011;54298;52.076;5.264;2022-12-18T11:52:04;29.2;;;21.3;;
67429;SDS011;54298;52.076;5.264;2022-12-18T11:53:51;27.7;;;19.41;;
67429;SDS011;54298;52.076;5.264;2022-12-18T11:57:27;25.2;;;18.3;;
67429;SDS011;54298;52.076;5.264;2022-12-18T11:59:13;26.2;;;18.8;;
67429;SDS011;54298;52.076;5.264;2022-12-18T12:01:01;26.3;;;18.0;;
67429;SDS011;54298;52.076;5.264;2022-12-18T12:03:14;26.3;;;18.0;;
67429;SDS011;54298;52.076;5.264;2022-12-18T12:06:36;22.6;;;17.0;;
67429;SDS011;54298;52.076;5.264;2022-12-18T12:08:24;24.4;;;17.61;;
67429;SDS011;54298;52.076;5.264;2022-12-18T12:12:10;29.9;;;19.3;;
67429;SDS011;54298;52.076;5.264;2022-12-18T12:14:07;27.7;;;19.91;;
67429;SDS011;54298;52.076;5.264;2022-12-18T12:16:11;29.6;;;21.5;;
67429;SDS011;54298;52.076;5.264;2022-12-18T12:17:54;25.2;;;18.11;;
67429;SDS011;54298;52.076;5.264;2022-12-18T12:19:43;38.21;;;23.1;;
67429;SDS011;54298;52.076;5.264;2022-12-18T12:21:28;28.1;;;19.91;;
67429;SDS011;54298;52.076;5.264;2022-12-18T12:23:17;42.2;;;26.5;;
67429;SDS011;54298;52.076;5.264;2022-12-18T12:25:14;28.0;;;18.91;;
67429;SDS011;54298;52.076;5.264;2022-12-18T12:27:00;24.7;;;17.7;;
67429;SDS011;54298;52.076;5.264;2022-12-18T12:30:43;24.1;;;17.61;;
67429;SDS011;54298;52.076;5.264;2022-12-18T12:32:37;25.6;;;19.0;;
67429;SDS011;54298;52.076;5.264;2022-12-18T12:34:26;24.6;;;18.0;;
67429;SDS011;54298;52.076;5.264;2022-12-18T12:36:11;26.0;;;19.8;;
67429;SDS011;54298;52.076;5.264;2022-12-18T12:38:01;24.7;;;16.2;;
67429;SDS011;54298;52.076;5.264;2022-12-18T12:39:45;24.3;;;17.3;;
67429;SDS011;54298;52.076;5.264;2022-12-18T12:43:04;22.3;;;17.3;;
67429;SDS011;54298;52.076;5.264;2022-12-18T12:44:58;23.2;;;16.2;;